sensor_id;sensor_type;location;lat;lon;timestamp;P1;durP1;ratioP1;P2;durP2;ratioP2
16401;SDS011;8310;44.626;11.176;2023-04-06T00:01:15;7.90;;;6.90;;
16401;SDS011;8310;44.626;11.176;2023-04-06T00:03:42;9.57;;;7.30;;
16401;SDS011;8310;44.626;11.176;2023-04-06T00:06:10;8.13;;;7.35;;
16401;SDS011;8310;44.626;11.176;2023-04-06T00:08:38;7.50;;;6.60;;
16401;SDS011;8310;44.626;11.176;2023-04-06T00:14:05;7.72;;;7.03;;
16401;SDS011;8310;44.626;11.176;2023-04-06T00:16:33;7.57;;;6.63;;
16401;SDS011;8310;44.626;11.176;2023-04-06T00:19:00;7.43;;;6.82;;
16401;SDS011;8310;44.626;11.176;2023-04-06T00:21:28;8.52;;;6.82;;
16401;SDS011;8310;44.626;11.176;2023-04-06T00:23:56;7.85;;;7.05;;
16401;SDS011;8310;44.626;11.176;2023-04-06T00:26:24;7.80;;;7.10;;
16401;SDS011;8310;44.626;11.176;2023-04-06T00:28:54;7.90;;;7.13;;
16401;SDS011;8310;44.626;11.176;2023-04-06T00:31:23;9.38;;;7.38;;
16401;SDS011;8310;44.626;11.176;2023-04-06T00:33:54;7.60;;;6.75;;
16401;SDS011;8310;44.626;11.176;2023-04-06T00:36:22;7.55;;;6.63;;
16401;SDS011;8310;44.626;11.176;2023-04-06T00:38:50;8.95;;;6.90;;
16401;SDS011;8310;44.626;11.176;2023-04-06T00:41:18;7.20;;;5.97;;
16401;SDS011;8310;44.626;11.176;2023-04-06T00:43:46;7.07;;;6.38;;
16401;SDS011;8310;44.626;11.176;2023-04-06T00:46:16;6.47;;;5.30;;
16401;SDS011;8310;44.626;11.176;2023-04-06T00:48:44;6.95;;;6.10;;
16401;SDS011;8310;44.626;11.176;2023-04-06T00:51:12;7.20;;;6.57;;
16401;SDS011;8310;44.626;11.176;2023-04-06T00:53:40;6.30;;;5.70;;
16401;SDS011;8310;44.626;11.176;2023-04-06T00:56:08;6.57;;;5.60;;
16401;SDS011;8310;44.626;11.176;2023-04-06T00:58:36;6.50;;;5.90;;
16401;SDS011;8310;44.626;11.176;2023-04-06T01:01:05;6.18;;;5.65;;
16401;SDS011;8310;44.626;11.176;2023-04-06T01:03:35;6.45;;;5.00;;
16401;SDS011;8310;44.626;11.176;2023-04-06T01:06:02;5.78;;;5.28;;
16401;SDS011;8310;44.626;11.176;2023-04-06T01:08:30;6.03;;;5.40;;
16401;SDS011;8310;44.626;11.176;2023-04-06T01:10:58;6.40;;;5.72;;
16401;SDS011;8310;44.626;11.176;2023-04-06T01:13:27;7.30;;;6.60;;
16401;SDS011;8310;44.626;11.176;2023-04-06T01:15:55;7.10;;;6.40;;
16401;SDS011;8310;44.626;11.176;2023-04-06T01:18:25;7.45;;;5.78;;
16401;SDS011;8310;44.626;11.176;2023-04-06T01:20:55;6.57;;;5.70;;
16401;SDS011;8310;44.626;11.176;2023-04-06T01:23:25;6.32;;;5.70;;
16401;SDS011;8310;44.626;11.176;2023-04-06T01:25:52;6.75;;;5.60;;
16401;SDS011;8310;44.626;11.176;2023-04-06T01:28:21;8.88;;;6.10;;
16401;SDS011;8310;44.626;11.176;2023-04-06T01:30:48;7.68;;;6.88;;
16401;SDS011;8310;44.626;11.176;2023-04-06T01:33:16;6.85;;;6.07;;
16401;SDS011;8310;44.626;11.176;2023-04-06T01:35:44;6.25;;;5.72;;
16401;SDS011;8310;44.626;11.176;2023-04-06T01:38:12;7.25;;;6.47;;
16401;SDS011;8310;44.626;11.176;2023-04-06T01:40:41;6.00;;;5.50;;
16401;SDS011;8310;44.626;11.176;2023-04-06T01:43:09;6.15;;;5.55;;
16401;SDS011;8310;44.626;11.176;2023-04-06T01:45:37;6.68;;;6.00;;
16401;SDS011;8310;44.626;11.176;2023-04-06T01:48:05;6.57;;;5.90;;
16401;SDS011;8310;44.626;11.176;2023-04-06T01:50:34;6.95;;;5.97;;
16401;SDS011;8310;44.626;11.176;2023-04-06T01:53:02;6.43;;;5.82;;
16401;SDS011;8310;44.626;11.176;2023-04-06T01:55:30;6.30;;;5.63;;
16401;SDS011;8310;44.626;11.176;2023-04-06T01:58:00;6.43;;;5.80;;
16401;SDS011;8310;44.626;11.176;2023-04-06T02:00:27;6.22;;;5.20;;
16401;SDS011;8310;44.626;11.176;2023-04-06T02:02:55;6.53;;;5.93;;
16401;SDS011;8310;44.626;11.176;2023-04-06T02:05:23;6.97;;;5.80;;
16401;SDS011;8310;44.626;11.176;2023-04-06T02:07:51;7.10;;;5.80;;
16401;SDS011;8310;44.626;11.176;2023-04-06T02:10:19;8.02;;;5.78;;
16401;SDS011;8310;44.626;11.176;2023-04-06T02:12:47;5.88;;;5.38;;
16401;SDS011;8310;44.626;11.176;2023-04-06T02:15:16;6.60;;;5.32;;
16401;SDS011;8310;44.626;11.176;2023-04-06T02:17:44;5.82;;;5.32;;
16401;SDS011;8310;44.626;11.176;2023-04-06T02:20:12;7.07;;;5.80;;
16401;SDS011;8310;44.626;11.176;2023-04-06T02:22:40;6.70;;;5.93;;
16401;SDS011;8310;44.626;11.176;2023-04-06T02:25:08;7.32;;;6.07;;
16401;SDS011;8310;44.626;11.176;2023-04-06T02:27:36;7.45;;;5.88;;
16401;SDS011;8310;44.626;11.176;2023-04-06T02:30:05;7.00;;;5.50;;
16401;SDS011;8310;44.626;11.176;2023-04-06T02:32:35;8.02;;;6.00;;
16401;SDS011;8310;44.626;11.176;2023-04-06T02:35:03;6.22;;;5.63;;
16401;SDS011;8310;44.626;11.176;2023-04-06T02:37:32;7.40;;;5.50;;
16401;SDS011;8310;44.626;11.176;2023-04-06T02:40:00;6.85;;;5.80;;
16401;SDS011;8310;44.626;11.176;2023-04-06T02:42:28;6.57;;;5.53;;
16401;SDS011;8310;44.626;11.176;2023-04-06T02:44:55;5.85;;;5.25;;
16401;SDS011;8310;44.626;11.176;2023-04-06T02:47:23;6.03;;;5.13;;
16401;SDS011;8310;44.626;11.176;2023-04-06T02:49:54;6.47;;;5.40;;
16401;SDS011;8310;44.626;11.176;2023-04-06T02:52:22;6.13;;;5.57;;
16401;SDS011;8310;44.626;11.176;2023-04-06T02:54:50;5.72;;;5.25;;
16401;SDS011;8310;44.626;11.176;2023-04-06T02:57:17;6.05;;;5.45;;
16401;SDS011;8310;44.626;11.176;2023-04-06T02:59:46;5.55;;;5.15;;
16401;SDS011;8310;44.626;11.176;2023-04-06T03:02:14;6.72;;;6.03;;
16401;SDS011;8310;44.626;11.176;2023-04-06T03:04:42;6.68;;;5.80;;
16401;SDS011;8310;44.626;11.176;2023-04-06T03:07:12;6.18;;;5.63;;
16401;SDS011;8310;44.626;11.176;2023-04-06T03:09:39;8.55;;;6.25;;
16401;SDS011;8310;44.626;11.176;2023-04-06T03:12:07;6.80;;;6.18;;
16401;SDS011;8310;44.626;11.176;2023-04-06T03:14:34;6.80;;;5.53;;
16401;SDS011;8310;44.626;11.176;2023-04-06T03:17:02;6.35;;;5.75;;
16401;SDS011;8310;44.626;11.176;2023-04-06T03:19:29;6.18;;;5.57;;
16401;SDS011;8310;44.626;11.176;2023-04-06T03:21:57;6.30;;;5.68;;
16401;SDS011;8310;44.626;11.176;2023-04-06T03:24:26;5.97;;;5.38;;
16401;SDS011;8310;44.626;11.176;2023-04-06T03:26:54;7.13;;;5.82;;
16401;SDS011;8310;44.626;11.176;2023-04-06T03:29:22;7.38;;;6.30;;
16401;SDS011;8310;44.626;11.176;2023-04-06T03:31:49;6.22;;;5.47;;
16401;SDS011;8310;44.626;11.176;2023-04-06T03:34:17;7.13;;;6.40;;
16401;SDS011;8310;44.626;11.176;2023-04-06T03:36:45;8.43;;;7.15;;
16401;SDS011;8310;44.626;11.176;2023-04-06T03:39:12;6.45;;;5.68;;
16401;SDS011;8310;44.626;11.176;2023-04-06T03:41:42;7.80;;;6.38;;
16401;SDS011;8310;44.626;11.176;2023-04-06T03:44:09;7.13;;;5.47;;
16401;SDS011;8310;44.626;11.176;2023-04-06T03:46:37;7.05;;;6.00;;
16401;SDS011;8310;44.626;11.176;2023-04-06T03:49:05;7.22;;;5.70;;
16401;SDS011;8310;44.626;11.176;2023-04-06T03:51:32;7.78;;;5.97;;
16401;SDS011;8310;44.626;11.176;2023-04-06T03:54:00;7.25;;;6.30;;
16401;SDS011;8310;44.626;11.176;2023-04-06T03:56:28;6.40;;;5.60;;
16401;SDS011;8310;44.626;11.176;2023-04-06T03:58:57;6.88;;;6.07;;
16401;SDS011;8310;44.626;11.176;2023-04-06T04:01:26;6.95;;;6.25;;
16401;SDS011;8310;44.626;11.176;2023-04-06T04:03:53;7.72;;;6.32;;
16401;SDS011;8310;44.626;11.176;2023-04-06T04:06:21;7.60;;;6.47;;
16401;SDS011;8310;44.626;11.176;2023-04-06T04:08:49;7.38;;;6.40;;
16401;SDS011;8310;44.626;11.176;2023-04-06T04:11:18;7.75;;;5.80;;
16401;SDS011;8310;44.626;11.176;2023-04-06T04:13:46;6.90;;;5.97;;
16401;SDS011;8310;44.626;11.176;2023-04-06T04:16:15;7.57;;;6.35;;
16401;SDS011;8310;44.626;11.176;2023-04-06T04:18:43;7.28;;;5.90;;
16401;SDS011;8310;44.626;11.176;2023-04-06T04:21:13;10.02;;;6.65;;
16401;SDS011;8310;44.626;11.176;2023-04-06T04:23:41;8.85;;;6.65;;
16401;SDS011;8310;44.626;11.176;2023-04-06T04:26:09;8.85;;;6.40;;
16401;SDS011;8310;44.626;11.176;2023-04-06T04:28:37;8.38;;;6.65;;
16401;SDS011;8310;44.626;11.176;2023-04-06T04:31:06;9.63;;;6.75;;
16401;SDS011;8310;44.626;11.176;2023-04-06T04:33:35;8.85;;;7.13;;
16401;SDS011;8310;44.626;11.176;2023-04-06T04:36:04;10.07;;;7.15;;
16401;SDS011;8310;44.626;11.176;2023-04-06T04:38:32;9.55;;;7.97;;
16401;SDS011;8310;44.626;11.176;2023-04-06T04:40:59;10.93;;;8.02;;
16401;SDS011;8310;44.626;11.176;2023-04-06T04:43:27;14.75;;;8.77;;
16401;SDS011;8310;44.626;11.176;2023-04-06T04:45:55;8.65;;;7.80;;
16401;SDS011;8310;44.626;11.176;2023-04-06T04:48:24;10.50;;;7.75;;
16401;SDS011;8310;44.626;11.176;2023-04-06T04:50:55;8.10;;;6.13;;
16401;SDS011;8310;44.626;11.176;2023-04-06T04:53:23;6.22;;;5.63;;
16401;SDS011;8310;44.626;11.176;2023-04-06T04:55:51;6.40;;;5.80;;
16401;SDS011;8310;44.626;11.176;2023-04-06T04:58:20;6.97;;;5.93;;
16401;SDS011;8310;44.626;11.176;2023-04-06T05:00:48;6.03;;;5.43;;
16401;SDS011;8310;44.626;11.176;2023-04-06T05:03:17;6.10;;;5.50;;
16401;SDS011;8310;44.626;11.176;2023-04-06T05:05:48;6.32;;;5.70;;
16401;SDS011;8310;44.626;11.176;2023-04-06T05:08:18;7.75;;;5.40;;
16401;SDS011;8310;44.626;11.176;2023-04-06T05:10:47;7.13;;;6.07;;
16401;SDS011;8310;44.626;11.176;2023-04-06T05:13:15;6.78;;;5.95;;
16401;SDS011;8310;44.626;11.176;2023-04-06T05:15:43;8.60;;;5.65;;
16401;SDS011;8310;44.626;11.176;2023-04-06T05:18:11;8.55;;;5.70;;
16401;SDS011;8310;44.626;11.176;2023-04-06T05:20:39;6.47;;;5.88;;
16401;SDS011;8310;44.626;11.176;2023-04-06T05:23:08;6.88;;;6.05;;
16401;SDS011;8310;44.626;11.176;2023-04-06T05:25:37;10.90;;;6.38;;
16401;SDS011;8310;44.626;11.176;2023-04-06T05:28:06;6.78;;;6.07;;
16401;SDS011;8310;44.626;11.176;2023-04-06T05:30:34;7.38;;;6.18;;
16401;SDS011;8310;44.626;11.176;2023-04-06T05:33:12;6.93;;;6.22;;
16401;SDS011;8310;44.626;11.176;2023-04-06T05:35:39;7.15;;;6.45;;
16401;SDS011;8310;44.626;11.176;2023-04-06T05:38:08;7.32;;;5.68;;
16401;SDS011;8310;44.626;11.176;2023-04-06T05:40:49;8.60;;;6.13;;
16401;SDS011;8310;44.626;11.176;2023-04-06T05:43:18;8.35;;;6.35;;
16401;SDS011;8310;44.626;11.176;2023-04-06T05:45:46;10.30;;;6.40;;
16401;SDS011;8310;44.626;11.176;2023-04-06T05:48:14;9.75;;;5.95;;
16401;SDS011;8310;44.626;11.176;2023-04-06T05:50:42;15.75;;;6.00;;
16401;SDS011;8310;44.626;11.176;2023-04-06T05:53:14;8.90;;;6.35;;
16401;SDS011;8310;44.626;11.176;2023-04-06T05:55:41;9.10;;;6.45;;
16401;SDS011;8310;44.626;11.176;2023-04-06T05:58:11;7.20;;;5.80;;
16401;SDS011;8310;44.626;11.176;2023-04-06T06:00:39;8.77;;;6.28;;
16401;SDS011;8310;44.626;11.176;2023-04-06T06:03:08;7.57;;;6.85;;
16401;SDS011;8310;44.626;11.176;2023-04-06T06:05:36;8.73;;;6.47;;
16401;SDS011;8310;44.626;11.176;2023-04-06T06:08:04;6.68;;;5.97;;
16401;SDS011;8310;44.626;11.176;2023-04-06T06:10:31;7.90;;;6.53;;
16401;SDS011;8310;44.626;11.176;2023-04-06T06:13:00;7.38;;;6.63;;
16401;SDS011;8310;44.626;11.176;2023-04-06T06:15:30;7.57;;;5.97;;
16401;SDS011;8310;44.626;11.176;2023-04-06T06:17:58;6.95;;;6.15;;
16401;SDS011;8310;44.626;11.176;2023-04-06T06:20:26;7.95;;;6.35;;
16401;SDS011;8310;44.626;11.176;2023-04-06T06:22:54;8.48;;;7.25;;
16401;SDS011;8310;44.626;11.176;2023-04-06T06:25:22;9.65;;;7.32;;
16401;SDS011;8310;44.626;11.176;2023-04-06T06:27:50;8.98;;;7.15;;
16401;SDS011;8310;44.626;11.176;2023-04-06T06:30:27;7.65;;;6.72;;
16401;SDS011;8310;44.626;11.176;2023-04-06T06:32:57;10.55;;;7.20;;
16401;SDS011;8310;44.626;11.176;2023-04-06T06:35:26;9.48;;;7.28;;
16401;SDS011;8310;44.626;11.176;2023-04-06T06:37:54;7.75;;;6.88;;
16401;SDS011;8310;44.626;11.176;2023-04-06T06:40:22;8.55;;;7.10;;
16401;SDS011;8310;44.626;11.176;2023-04-06T06:42:51;9.73;;;7.43;;
16401;SDS011;8310;44.626;11.176;2023-04-06T06:47:58;8.50;;;6.82;;
16401;SDS011;8310;44.626;11.176;2023-04-06T06:50:26;8.38;;;7.03;;
16401;SDS011;8310;44.626;11.176;2023-04-06T06:52:54;13.95;;;7.38;;
16401;SDS011;8310;44.626;11.176;2023-04-06T06:55:22;10.48;;;7.55;;
16401;SDS011;8310;44.626;11.176;2023-04-06T06:57:51;8.90;;;7.68;;
16401;SDS011;8310;44.626;11.176;2023-04-06T07:00:19;8.65;;;6.90;;
16401;SDS011;8310;44.626;11.176;2023-04-06T07:02:48;8.75;;;7.05;;
16401;SDS011;8310;44.626;11.176;2023-04-06T07:05:17;9.20;;;7.35;;
16401;SDS011;8310;44.626;11.176;2023-04-06T07:07:45;7.85;;;6.82;;
16401;SDS011;8310;44.626;11.176;2023-04-06T07:10:13;8.02;;;7.28;;
16401;SDS011;8310;44.626;11.176;2023-04-06T07:12:41;9.93;;;6.85;;
16401;SDS011;8310;44.626;11.176;2023-04-06T07:15:09;9.02;;;7.53;;
16401;SDS011;8310;44.626;11.176;2023-04-06T07:17:38;7.88;;;7.18;;
16401;SDS011;8310;44.626;11.176;2023-04-06T07:20:06;10.00;;;7.18;;
16401;SDS011;8310;44.626;11.176;2023-04-06T07:22:36;10.60;;;7.15;;
16401;SDS011;8310;44.626;11.176;2023-04-06T07:25:12;8.63;;;7.72;;
16401;SDS011;8310;44.626;11.176;2023-04-06T07:27:39;9.90;;;7.72;;
16401;SDS011;8310;44.626;11.176;2023-04-06T07:30:07;8.25;;;6.65;;
16401;SDS011;8310;44.626;11.176;2023-04-06T07:32:35;7.53;;;6.82;;
16401;SDS011;8310;44.626;11.176;2023-04-06T07:35:06;8.35;;;7.32;;
16401;SDS011;8310;44.626;11.176;2023-04-06T07:37:35;7.78;;;6.80;;
16401;SDS011;8310;44.626;11.176;2023-04-06T07:40:03;8.68;;;7.20;;
16401;SDS011;8310;44.626;11.176;2023-04-06T07:42:31;10.50;;;6.68;;
16401;SDS011;8310;44.626;11.176;2023-04-06T07:44:59;8.32;;;6.38;;
16401;SDS011;8310;44.626;11.176;2023-04-06T07:47:26;8.48;;;6.60;;
16401;SDS011;8310;44.626;11.176;2023-04-06T07:49:54;7.32;;;5.43;;
16401;SDS011;8310;44.626;11.176;2023-04-06T07:52:22;6.88;;;6.18;;
16401;SDS011;8310;44.626;11.176;2023-04-06T07:54:51;9.68;;;6.50;;
16401;SDS011;8310;44.626;11.176;2023-04-06T07:57:20;7.22;;;6.53;;
16401;SDS011;8310;44.626;11.176;2023-04-06T07:59:48;6.40;;;5.80;;
16401;SDS011;8310;44.626;11.176;2023-04-06T08:02:15;9.02;;;7.15;;
16401;SDS011;8310;44.626;11.176;2023-04-06T08:04:43;9.15;;;6.43;;
16401;SDS011;8310;44.626;11.176;2023-04-06T08:07:11;7.68;;;6.18;;
16401;SDS011;8310;44.626;11.176;2023-04-06T08:09:38;6.88;;;5.97;;
16401;SDS011;8310;44.626;11.176;2023-04-06T08:12:09;6.63;;;5.82;;
16401;SDS011;8310;44.626;11.176;2023-04-06T08:14:37;5.80;;;5.25;;
16401;SDS011;8310;44.626;11.176;2023-04-06T08:17:04;7.03;;;5.25;;
16401;SDS011;8310;44.626;11.176;2023-04-06T08:19:32;5.47;;;4.90;;
16401;SDS011;8310;44.626;11.176;2023-04-06T08:22:00;5.47;;;4.93;;
16401;SDS011;8310;44.626;11.176;2023-04-06T08:24:28;4.85;;;4.45;;
16401;SDS011;8310;44.626;11.176;2023-04-06T08:26:57;4.82;;;4.28;;
16401;SDS011;8310;44.626;11.176;2023-04-06T08:29:26;18.75;;;5.10;;
16401;SDS011;8310;44.626;11.176;2023-04-06T08:31:54;5.10;;;4.60;;
16401;SDS011;8310;44.626;11.176;2023-04-06T08:34:21;4.82;;;4.43;;
16401;SDS011;8310;44.626;11.176;2023-04-06T08:36:49;5.32;;;4.50;;
16401;SDS011;8310;44.626;11.176;2023-04-06T08:39:17;5.40;;;4.82;;
16401;SDS011;8310;44.626;11.176;2023-04-06T08:41:49;5.00;;;4.60;;
16401;SDS011;8310;44.626;11.176;2023-04-06T08:44:17;5.35;;;4.85;;
16401;SDS011;8310;44.626;11.176;2023-04-06T08:46:46;7.93;;;4.93;;
16401;SDS011;8310;44.626;11.176;2023-04-06T08:49:13;4.93;;;4.40;;
16401;SDS011;8310;44.626;11.176;2023-04-06T08:51:42;5.22;;;4.70;;
16401;SDS011;8310;44.626;11.176;2023-04-06T08:54:10;6.38;;;4.70;;
16401;SDS011;8310;44.626;11.176;2023-04-06T08:56:38;5.20;;;4.80;;
16401;SDS011;8310;44.626;11.176;2023-04-06T08:59:06;5.28;;;4.82;;
16401;SDS011;8310;44.626;11.176;2023-04-06T09:01:38;5.93;;;5.05;;
16401;SDS011;8310;44.626;11.176;2023-04-06T09:04:09;5.30;;;4.78;;
16401;SDS011;8310;44.626;11.176;2023-04-06T09:06:38;5.75;;;5.25;;
16401;SDS011;8310;44.626;11.176;2023-04-06T09:09:06;5.47;;;4.97;;
16401;SDS011;8310;44.626;11.176;2023-04-06T09:11:46;5.97;;;5.18;;
16401;SDS011;8310;44.626;11.176;2023-04-06T09:14:15;4.80;;;4.35;;
16401;SDS011;8310;44.626;11.176;2023-04-06T09:16:43;4.78;;;4.32;;
16401;SDS011;8310;44.626;11.176;2023-04-06T09:19:14;5.03;;;4.22;;
16401;SDS011;8310;44.626;11.176;2023-04-06T09:21:41;4.28;;;3.97;;
16401;SDS011;8310;44.626;11.176;2023-04-06T09:24:09;5.03;;;4.20;;
16401;SDS011;8310;44.626;11.176;2023-04-06T09:26:45;4.38;;;4.07;;
16401;SDS011;8310;44.626;11.176;2023-04-06T09:29:23;4.78;;;4.38;;
16401;SDS011;8310;44.626;11.176;2023-04-06T09:31:52;4.95;;;4.55;;
16401;SDS011;8310;44.626;11.176;2023-04-06T09:34:29;5.18;;;4.78;;
16401;SDS011;8310;44.626;11.176;2023-04-06T09:36:57;4.85;;;4.40;;
16401;SDS011;8310;44.626;11.176;2023-04-06T09:39:24;4.45;;;4.15;;
16401;SDS011;8310;44.626;11.176;2023-04-06T09:41:53;5.07;;;4.68;;
16401;SDS011;8310;44.626;11.176;2023-04-06T09:44:20;6.03;;;4.43;;
16401;SDS011;8310;44.626;11.176;2023-04-06T09:46:49;5.55;;;4.88;;
16401;SDS011;8310;44.626;11.176;2023-04-06T09:49:18;6.70;;;4.85;;
16401;SDS011;8310;44.626;11.176;2023-04-06T09:51:51;5.55;;;4.85;;
16401;SDS011;8310;44.626;11.176;2023-04-06T09:54:21;5.45;;;4.80;;
16401;SDS011;8310;44.626;11.176;2023-04-06T09:56:50;4.85;;;4.45;;
16401;SDS011;8310;44.626;11.176;2023-04-06T09:59:25;4.72;;;4.32;;
16401;SDS011;8310;44.626;11.176;2023-04-06T10:02:12;5.93;;;4.70;;
16401;SDS011;8310;44.626;11.176;2023-04-06T10:04:47;5.07;;;4.63;;
16401;SDS011;8310;44.626;11.176;2023-04-06T10:07:22;4.63;;;4.22;;
16401;SDS011;8310;44.626;11.176;2023-04-06T10:09:50;4.57;;;4.03;;
16401;SDS011;8310;44.626;11.176;2023-04-06T10:12:21;4.38;;;4.07;;
16401;SDS011;8310;44.626;11.176;2023-04-06T10:14:48;4.55;;;4.18;;
16401;SDS011;8310;44.626;11.176;2023-04-06T10:17:16;5.10;;;4.70;;
16401;SDS011;8310;44.626;11.176;2023-04-06T10:19:44;5.63;;;5.13;;
16401;SDS011;8310;44.626;11.176;2023-04-06T10:22:18;5.50;;;5.03;;
16401;SDS011;8310;44.626;11.176;2023-04-06T10:24:53;5.35;;;4.90;;
16401;SDS011;8310;44.626;11.176;2023-04-06T10:27:30;6.20;;;5.80;;
16401;SDS011;8310;44.626;11.176;2023-04-06T10:30:02;5.97;;;5.35;;
16401;SDS011;8310;44.626;11.176;2023-04-06T10:32:32;8.30;;;6.55;;
16401;SDS011;8310;44.626;11.176;2023-04-06T10:35:05;6.07;;;5.57;;
16401;SDS011;8310;44.626;11.176;2023-04-06T10:37:47;6.70;;;6.10;;
16401;SDS011;8310;44.626;11.176;2023-04-06T10:40:22;6.10;;;5.50;;
16401;SDS011;8310;44.626;11.176;2023-04-06T10:42:52;6.45;;;5.85;;
16401;SDS011;8310;44.626;11.176;2023-04-06T10:45:21;5.88;;;5.32;;
16401;SDS011;8310;44.626;11.176;2023-04-06T10:47:49;6.40;;;5.80;;
16401;SDS011;8310;44.626;11.176;2023-04-06T10:50:20;6.20;;;5.70;;
16401;SDS011;8310;44.626;11.176;2023-04-06T10:52:59;6.32;;;5.72;;
16401;SDS011;8310;44.626;11.176;2023-04-06T10:55:28;6.47;;;5.93;;
16401;SDS011;8310;44.626;11.176;2023-04-06T10:57:57;6.97;;;6.13;;
16401;SDS011;8310;44.626;11.176;2023-04-06T11:00:25;6.32;;;5.70;;
16401;SDS011;8310;44.626;11.176;2023-04-06T11:02:58;6.38;;;5.78;;
16401;SDS011;8310;44.626;11.176;2023-04-06T11:05:26;5.63;;;5.05;;
16401;SDS011;8310;44.626;11.176;2023-04-06T11:07:54;8.38;;;6.60;;
16401;SDS011;8310;44.626;11.176;2023-04-06T11:10:23;7.05;;;5.75;;
16401;SDS011;8310;44.626;11.176;2023-04-06T11:12:53;6.95;;;5.65;;
16401;SDS011;8310;44.626;11.176;2023-04-06T11:15:21;5.88;;;5.32;;
16401;SDS011;8310;44.626;11.176;2023-04-06T11:17:49;6.80;;;6.15;;
16401;SDS011;8310;44.626;11.176;2023-04-06T11:20:16;6.60;;;6.00;;
16401;SDS011;8310;44.626;11.176;2023-04-06T11:22:48;6.68;;;5.97;;
16401;SDS011;8310;44.626;11.176;2023-04-06T11:25:17;6.68;;;6.07;;
16401;SDS011;8310;44.626;11.176;2023-04-06T11:27:46;8.05;;;6.57;;
16401;SDS011;8310;44.626;11.176;2023-04-06T11:30:14;7.07;;;6.47;;
16401;SDS011;8310;44.626;11.176;2023-04-06T11:32:42;6.53;;;5.93;;
16401;SDS011;8310;44.626;11.176;2023-04-06T11:35:11;7.10;;;6.50;;
16401;SDS011;8310;44.626;11.176;2023-04-06T11:37:47;7.00;;;6.40;;
16401;SDS011;8310;44.626;11.176;2023-04-06T11:40:15;7.45;;;6.70;;
16401;SDS011;8310;44.626;11.176;2023-04-06T11:42:53;8.40;;;6.32;;
16401;SDS011;8310;44.626;11.176;2023-04-06T11:45:22;6.60;;;5.90;;
16401;SDS011;8310;44.626;11.176;2023-04-06T11:47:55;7.72;;;6.95;;
16401;SDS011;8310;44.626;11.176;2023-04-06T11:50:24;6.88;;;6.28;;
16401;SDS011;8310;44.626;11.176;2023-04-06T11:52:58;6.65;;;6.05;;
16401;SDS011;8310;44.626;11.176;2023-04-06T11:55:26;7.20;;;6.63;;
16401;SDS011;8310;44.626;11.176;2023-04-06T11:57:56;9.73;;;7.18;;
16401;SDS011;8310;44.626;11.176;2023-04-06T12:00:28;14.88;;;11.43;;
16401;SDS011;8310;44.626;11.176;2023-04-06T12:02:59;7.35;;;6.57;;
16401;SDS011;8310;44.626;11.176;2023-04-06T12:05:27;7.50;;;6.70;;
16401;SDS011;8310;44.626;11.176;2023-04-06T12:07:55;8.57;;;7.88;;
16401;SDS011;8310;44.626;11.176;2023-04-06T12:10:22;8.20;;;7.38;;
16401;SDS011;8310;44.626;11.176;2023-04-06T12:12:51;7.53;;;6.70;;
16401;SDS011;8310;44.626;11.176;2023-04-06T12:15:20;6.80;;;6.15;;
16401;SDS011;8310;44.626;11.176;2023-04-06T12:17:48;7.50;;;6.80;;
16401;SDS011;8310;44.626;11.176;2023-04-06T12:20:16;7.50;;;6.80;;
16401;SDS011;8310;44.626;11.176;2023-04-06T12:22:44;8.50;;;7.10;;
16401;SDS011;8310;44.626;11.176;2023-04-06T12:25:11;7.15;;;6.53;;
16401;SDS011;8310;44.626;11.176;2023-04-06T12:27:39;7.93;;;7.18;;
16401;SDS011;8310;44.626;11.176;2023-04-06T12:30:07;7.60;;;6.97;;
16401;SDS011;8310;44.626;11.176;2023-04-06T12:32:37;7.97;;;7.28;;
16401;SDS011;8310;44.626;11.176;2023-04-06T12:35:05;8.00;;;7.30;;
16401;SDS011;8310;44.626;11.176;2023-04-06T12:37:33;8.10;;;7.40;;
16401;SDS011;8310;44.626;11.176;2023-04-06T12:40:01;8.30;;;7.50;;
16401;SDS011;8310;44.626;11.176;2023-04-06T12:42:29;8.18;;;7.35;;
16401;SDS011;8310;44.626;11.176;2023-04-06T12:44:57;7.65;;;6.85;;
16401;SDS011;8310;44.626;11.176;2023-04-06T12:47:25;8.00;;;6.75;;
16401;SDS011;8310;44.626;11.176;2023-04-06T12:49:54;8.15;;;6.88;;
16401;SDS011;8310;44.626;11.176;2023-04-06T12:52:22;7.18;;;6.57;;
16401;SDS011;8310;44.626;11.176;2023-04-06T12:54:49;8.38;;;7.60;;
16401;SDS011;8310;44.626;11.176;2023-04-06T12:57:17;8.43;;;7.72;;
16401;SDS011;8310;44.626;11.176;2023-04-06T12:59:45;7.53;;;6.82;;
16401;SDS011;8310;44.626;11.176;2023-04-06T13:02:13;8.25;;;7.43;;
16401;SDS011;8310;44.626;11.176;2023-04-06T13:04:45;7.53;;;6.88;;
16401;SDS011;8310;44.626;11.176;2023-04-06T13:07:18;8.13;;;7.43;;
16401;SDS011;8310;44.626;11.176;2023-04-06T13:09:46;8.18;;;7.40;;
16401;SDS011;8310;44.626;11.176;2023-04-06T13:12:14;9.43;;;7.88;;
16401;SDS011;8310;44.626;11.176;2023-04-06T13:14:41;8.82;;;8.00;;
16401;SDS011;8310;44.626;11.176;2023-04-06T13:17:09;7.75;;;7.07;;
16401;SDS011;8310;44.626;11.176;2023-04-06T13:19:37;7.38;;;6.68;;
16401;SDS011;8310;44.626;11.176;2023-04-06T13:22:04;7.95;;;7.25;;
16401;SDS011;8310;44.626;11.176;2023-04-06T13:24:33;7.53;;;6.93;;
16401;SDS011;8310;44.626;11.176;2023-04-06T13:27:00;7.60;;;7.00;;
16401;SDS011;8310;44.626;11.176;2023-04-06T13:29:28;8.20;;;7.40;;
16401;SDS011;8310;44.626;11.176;2023-04-06T13:31:55;9.65;;;7.93;;
16401;SDS011;8310;44.626;11.176;2023-04-06T13:34:23;8.93;;;8.02;;
16401;SDS011;8310;44.626;11.176;2023-04-06T13:36:50;9.07;;;8.35;;
16401;SDS011;8310;44.626;11.176;2023-04-06T13:39:18;11.48;;;9.20;;
16401;SDS011;8310;44.626;11.176;2023-04-06T13:41:47;9.10;;;8.30;;
16401;SDS011;8310;44.626;11.176;2023-04-06T13:44:14;9.30;;;8.48;;
16401;SDS011;8310;44.626;11.176;2023-04-06T13:46:42;9.63;;;8.80;;
16401;SDS011;8310;44.626;11.176;2023-04-06T13:49:10;9.48;;;8.60;;
16401;SDS011;8310;44.626;11.176;2023-04-06T13:51:37;8.32;;;7.50;;
16401;SDS011;8310;44.626;11.176;2023-04-06T13:54:05;9.40;;;8.55;;
16401;SDS011;8310;44.626;11.176;2023-04-06T13:56:32;8.75;;;7.88;;
16401;SDS011;8310;44.626;11.176;2023-04-06T13:59:02;8.80;;;8.10;;
16401;SDS011;8310;44.626;11.176;2023-04-06T14:01:30;8.98;;;8.13;;
16401;SDS011;8310;44.626;11.176;2023-04-06T14:03:57;8.55;;;7.85;;
16401;SDS011;8310;44.626;11.176;2023-04-06T14:06:25;8.43;;;7.72;;
16401;SDS011;8310;44.626;11.176;2023-04-06T14:08:53;9.25;;;8.45;;
16401;SDS011;8310;44.626;11.176;2023-04-06T14:11:21;8.52;;;7.72;;
16401;SDS011;8310;44.626;11.176;2023-04-06T14:13:49;8.57;;;7.78;;
16401;SDS011;8310;44.626;11.176;2023-04-06T14:16:22;8.93;;;8.05;;
16401;SDS011;8310;44.626;11.176;2023-04-06T14:18:50;8.48;;;7.25;;
16401;SDS011;8310;44.626;11.176;2023-04-06T14:21:18;8.70;;;7.88;;
16401;SDS011;8310;44.626;11.176;2023-04-06T14:23:45;10.27;;;7.45;;
16401;SDS011;8310;44.626;11.176;2023-04-06T14:26:13;8.02;;;7.32;;
16401;SDS011;8310;44.626;11.176;2023-04-06T14:28:40;9.48;;;8.05;;
16401;SDS011;8310;44.626;11.176;2023-04-06T14:31:11;9.25;;;8.35;;
16401;SDS011;8310;44.626;11.176;2023-04-06T14:33:42;9.20;;;8.30;;
16401;SDS011;8310;44.626;11.176;2023-04-06T14:36:09;8.10;;;7.40;;
16401;SDS011;8310;44.626;11.176;2023-04-06T14:38:38;7.85;;;7.20;;
16401;SDS011;8310;44.626;11.176;2023-04-06T14:41:06;9.57;;;8.68;;
16401;SDS011;8310;44.626;11.176;2023-04-06T14:43:34;8.45;;;7.65;;
16401;SDS011;8310;44.626;11.176;2023-04-06T14:46:01;9.15;;;8.35;;
16401;SDS011;8310;44.626;11.176;2023-04-06T14:48:29;8.95;;;8.15;;
16401;SDS011;8310;44.626;11.176;2023-04-06T14:50:58;8.45;;;7.65;;
16401;SDS011;8310;44.626;11.176;2023-04-06T14:53:25;11.20;;;8.80;;
16401;SDS011;8310;44.626;11.176;2023-04-06T14:55:53;9.93;;;8.93;;
16401;SDS011;8310;44.626;11.176;2023-04-06T14:58:21;9.00;;;8.10;;
16401;SDS011;8310;44.626;11.176;2023-04-06T15:00:49;9.75;;;8.82;;
16401;SDS011;8310;44.626;11.176;2023-04-06T15:03:23;10.43;;;8.25;;